createdAt,value
2024-03-05T00:02:47.791Z,6.80
2024-03-05T00:06:19.777Z,6.60
2024-03-05T00:09:43.738Z,8.50
2024-03-05T00:13:31.348Z,7.30
2024-03-05T00:17:20.443Z,7.40
2024-03-05T00:21:09.662Z,7.10
2024-03-05T00:24:57.513Z,5.60
2024-03-05T00:28:12.361Z,6.30
2024-03-05T00:31:29.699Z,5.90
2024-03-05T00:35:00.283Z,4.80
2024-03-05T00:38:15.076Z,4.80
2024-03-05T00:42:07.598Z,5.30
2024-03-05T00:45:32.907Z,3.60
2024-03-05T00:49:04.818Z,2.60
2024-03-05T00:52:34.003Z,3.50
2024-03-05T00:56:17.409Z,5.20
2024-03-05T00:59:31.697Z,3.40
2024-03-05T01:03:01.560Z,4.10
2024-03-05T01:06:43.194Z,2.90
2024-03-05T01:10:12.272Z,4.20
2024-03-05T01:13:55.250Z,4.20
2024-03-05T01:17:20.141Z,4.00
2024-03-05T01:21:01.942Z,4.80
2024-03-05T01:24:04.438Z,5.70
2024-03-05T01:27:23.509Z,6.00
2024-03-05T01:30:42.362Z,7.60
2024-03-05T01:33:48.118Z,6.30
2024-03-05T01:37:19.590Z,6.10
2024-03-05T01:40:26.161Z,6.30
2024-03-05T01:47:18.458Z,4.70
2024-03-05T01:50:23.912Z,3.20
2024-03-05T01:54:02.879Z,4.70
2024-03-05T01:57:45.680Z,3.10
2024-03-05T02:01:08.578Z,3.30
2024-03-05T02:04:24.888Z,4.10
2024-03-05T02:08:06.910Z,5.10
2024-03-05T02:11:59.447Z,5.10
2024-03-05T02:15:14.783Z,4.70
2024-03-05T02:18:38.726Z,4.40
2024-03-05T02:22:03.662Z,7.40
2024-03-05T02:25:52.945Z,6.50
2024-03-05T02:29:42.122Z,6.20
2024-03-05T02:33:13.903Z,6.40
2024-03-05T02:36:35.624Z,6.70
2024-03-05T02:40:24.886Z,6.20
2024-03-05T02:44:06.982Z,6.20
2024-03-05T02:47:38.801Z,6.00
2024-03-05T02:51:28.039Z,6.30
2024-03-05T02:54:58.509Z,5.70
2024-03-05T02:58:47.708Z,6.40
2024-03-05T03:02:09.195Z,3.40
2024-03-05T03:05:43.856Z,5.50
2024-03-05T03:08:41.872Z,5.00
2024-03-05T03:12:16.381Z,4.30
2024-03-05T03:15:47.130Z,5.40
2024-03-05T03:18:54.773Z,4.70
2024-03-05T03:22:04.005Z,3.60
2024-03-05T03:25:24.786Z,4.40
2024-03-05T03:29:13.977Z,4.10
2024-03-05T03:32:56.008Z,4.30
2024-03-05T03:35:57.752Z,3.80
2024-03-05T03:39:22.492Z,2.20
2024-03-05T03:42:28.467Z,2.40
2024-03-05T03:45:47.491Z,2.20
2024-03-05T03:49:39.366Z,2.10
2024-03-05T03:52:59.500Z,3.50
2024-03-05T03:56:19.420Z,5.40
2024-03-05T03:59:48.552Z,7.60
2024-03-05T04:03:20.697Z,7.60
2024-03-05T04:06:52.272Z,8.40
2024-03-05T04:10:24.496Z,8.00
2024-03-05T04:13:44.794Z,7.80
2024-03-05T04:17:09.749Z,9.10
2024-03-05T04:20:28.576Z,8.80
2024-03-05T04:23:52.638Z,7.50
2024-03-05T04:26:49.169Z,6.90
2024-03-05T04:30:13.843Z,7.90
2024-03-05T04:33:43.231Z,7.50
2024-03-05T04:36:59.602Z,7.10
2024-03-05T04:40:31.815Z,7.40
2024-03-05T04:44:05.520Z,8.70
2024-03-05T04:47:20.471Z,8.30
2024-03-05T04:51:09.645Z,7.30
2024-03-05T04:54:45.410Z,6.40
2024-03-05T04:58:23.359Z,8.20
2024-03-05T05:01:52.351Z,7.20
2024-03-05T05:05:41.414Z,6.10
2024-03-05T05:09:02.133Z,8.40
2024-03-05T05:12:24.241Z,7.90
2024-03-05T05:19:10.157Z,3.70
2024-03-05T05:22:44.830Z,8.60
2024-03-05T05:26:07.945Z,9.00
2024-03-05T05:29:31.803Z,5.80
2024-03-05T05:33:29.237Z,6.70
2024-03-05T05:36:40.441Z,8.80
2024-03-05T05:39:59.561Z,9.10
2024-03-05T05:43:31.644Z,9.10
2024-03-05T05:46:53.246Z,8.50
2024-03-05T05:50:14.962Z,8.90
2024-03-05T05:53:20.209Z,7.90
2024-03-05T05:56:30.521Z,9.80
2024-03-05T05:59:46.770Z,7.50
2024-03-05T06:02:51.057Z,5.50
2024-03-05T06:06:36.243Z,7.60
2024-03-05T06:10:18.390Z,7.30
2024-03-05T06:14:02.435Z,8.60
2024-03-05T06:17:42.636Z,6.50
2024-03-05T06:21:03.866Z,6.10
2024-03-05T06:24:53.342Z,6.00
2024-03-05T06:28:35.974Z,7.30
2024-03-05T06:32:08.208Z,11.00
2024-03-05T06:35:38.994Z,17.90
2024-03-05T06:39:29.150Z,17.00
2024-03-05T06:42:35.763Z,24.00
2024-03-05T06:45:52.857Z,18.30
2024-03-05T06:49:03.811Z,11.80
2024-03-05T06:52:24.878Z,14.30
2024-03-05T06:55:55.919Z,12.30
2024-03-05T06:59:06.452Z,17.60
2024-03-05T07:02:04.394Z,10.10
2024-03-05T07:04:36.606Z,10.80
2024-03-05T07:07:10.297Z,11.90
2024-03-05T07:09:44.338Z,12.90
2024-03-05T07:12:14.475Z,13.00
2024-03-05T07:15:07.145Z,11.30
2024-03-05T07:18:27.122Z,11.80
2024-03-05T07:21:13.104Z,14.70
2024-03-05T07:23:47.574Z,13.00
2024-03-05T07:26:33.761Z,14.50
2024-03-05T07:29:32.724Z,12.20
2024-03-05T07:32:36.958Z,14.70
2024-03-05T07:35:09.830Z,14.40
2024-03-05T07:37:38.492Z,13.80
2024-03-05T07:40:22.083Z,13.00
2024-03-05T07:43:05.062Z,14.10
2024-03-05T07:46:01.372Z,14.60
2024-03-05T07:48:59.970Z,12.70
2024-03-05T07:51:41.069Z,12.60
2024-03-05T07:55:14.702Z,14.50
2024-03-05T07:58:17.474Z,15.30
2024-03-05T08:00:51.888Z,18.30
2024-03-05T08:03:55.837Z,20.40
2024-03-05T08:06:32.014Z,17.50
2024-03-05T08:09:13.335Z,15.80
2024-03-05T08:12:05.053Z,13.20
2024-03-05T08:14:59.371Z,16.10
2024-03-05T08:18:02.325Z,15.10
2024-03-05T08:21:37.265Z,11.00
2024-03-05T08:24:56.378Z,12.10
2024-03-05T08:27:39.961Z,10.10
2024-03-05T08:30:41.942Z,10.50
2024-03-05T08:33:30.314Z,11.00
2024-03-05T08:36:32.053Z,12.40
2024-03-05T08:39:20.918Z,12.60
2024-03-05T08:41:49.623Z,9.70
2024-03-05T08:44:36.408Z,9.50
2024-03-05T08:47:40.402Z,9.90
2024-03-05T08:51:19.078Z,11.40
2024-03-05T08:54:22.167Z,14.40
2024-03-05T08:57:13.495Z,25.40
2024-03-05T09:00:16.553Z,11.30
2024-03-05T09:12:35.326Z,8.50
2024-03-05T09:17:14.384Z,18.80
2024-03-05T09:24:45.623Z,11.60
2024-03-05T09:28:55.760Z,8.90
2024-03-05T09:33:25.504Z,6.80
2024-03-05T09:37:35.321Z,5.90
2024-03-05T09:45:09.694Z,7.10
2024-03-05T10:03:02.292Z,5.10
2024-03-05T10:05:41.490Z,6.00
2024-03-05T10:08:19.862Z,4.90
2024-03-05T10:15:00.627Z,5.60
2024-03-05T10:18:15.528Z,4.90
2024-03-05T10:20:47.382Z,4.20
2024-03-05T10:23:30.844Z,4.70
2024-03-05T10:26:19.139Z,4.30
2024-03-05T10:29:04.342Z,5.30
2024-03-05T10:32:07.529Z,5.50
2024-03-05T10:34:47.620Z,4.70
2024-03-05T10:37:19.147Z,4.70
2024-03-05T10:39:53.865Z,5.30
2024-03-05T10:42:26.403Z,4.90
2024-03-05T10:47:25.076Z,3.90
2024-03-05T10:50:00.667Z,3.70
2024-03-05T10:53:17.062Z,5.30
2024-03-05T10:56:15.132Z,4.20
2024-03-05T10:59:02.458Z,5.10
2024-03-05T11:01:55.119Z,4.50
2024-03-05T11:04:58.033Z,4.80
2024-03-05T11:08:46.679Z,4.50
2024-03-05T11:11:32.052Z,3.90
2024-03-05T11:14:22.041Z,4.80
2024-03-05T11:17:34.166Z,6.20
2024-03-05T11:20:41.046Z,3.50
2024-03-05T11:23:14.184Z,3.20
2024-03-05T11:25:56.063Z,3.50
2024-03-05T11:28:29.298Z,3.40
2024-03-05T11:31:18.649Z,2.90
2024-03-05T11:34:12.834Z,4.60
2024-03-05T11:36:40.910Z,2.70
2024-03-05T11:39:18.215Z,2.60
2024-03-05T11:41:46.857Z,3.50
2024-03-05T11:44:14.670Z,2.70
2024-03-05T11:46:48.999Z,3.50
2024-03-05T11:49:17.515Z,2.70
2024-03-05T11:51:46.604Z,3.00
2024-03-05T11:54:21.708Z,3.70
2024-03-05T11:56:58.784Z,3.00
2024-03-05T11:59:43.994Z,3.20
2024-03-05T12:02:18.242Z,2.90
2024-03-05T12:04:48.084Z,3.40
2024-03-05T12:07:15.466Z,2.80
2024-03-05T12:09:43.987Z,2.90
2024-03-05T12:12:13.476Z,1.90
2024-03-05T12:14:49.783Z,2.30
2024-03-05T12:17:18.923Z,2.60
2024-03-05T12:19:47.286Z,2.00
2024-03-05T12:22:17.072Z,2.60
2024-03-05T12:24:44.059Z,2.40
2024-03-05T12:27:11.844Z,2.30
2024-03-05T12:29:40.873Z,2.30
2024-03-05T12:32:09.614Z,1.80
2024-03-05T12:34:37.020Z,2.10
2024-03-05T12:37:08.550Z,3.20
2024-03-05T12:39:39.395Z,2.40
2024-03-05T12:42:10.230Z,2.80
2024-03-05T12:44:37.623Z,3.70
2024-03-05T12:47:05.936Z,2.20
2024-03-05T12:49:36.477Z,2.30
2024-03-05T12:52:08.994Z,3.30
2024-03-05T12:54:36.330Z,3.60
2024-03-05T12:57:08.475Z,4.10
2024-03-05T12:59:35.215Z,3.10
2024-03-05T13:02:03.672Z,3.00
2024-03-05T13:04:30.866Z,3.00
2024-03-05T13:06:58.039Z,2.90
2024-03-05T13:09:24.874Z,3.00
2024-03-05T13:11:52.386Z,3.00
2024-03-05T13:14:23.176Z,2.80
2024-03-05T13:16:52.935Z,2.60
2024-03-05T13:19:22.535Z,2.70
2024-03-05T13:21:50.197Z,3.80
2024-03-05T13:24:17.003Z,2.60
2024-03-05T13:26:49.047Z,2.30
2024-03-05T13:29:16.823Z,3.60
2024-03-05T13:31:43.853Z,2.00
2024-03-05T13:34:11.337Z,2.50
2024-03-05T13:36:40.276Z,1.80
2024-03-05T13:39:09.725Z,1.60
2024-03-05T13:41:40.771Z,1.90
2024-03-05T13:44:09.293Z,1.70
2024-03-05T13:46:40.012Z,2.20
2024-03-05T13:49:11.804Z,1.70
2024-03-05T13:51:38.714Z,2.50
2024-03-05T13:54:06.861Z,2.30
2024-03-05T13:56:33.647Z,2.00
2024-03-05T13:59:01.750Z,1.80
2024-03-05T14:01:29.435Z,1.50
2024-03-05T14:03:56.639Z,1.80
2024-03-05T14:06:24.926Z,1.20
2024-03-05T14:08:52.318Z,1.10
2024-03-05T14:11:19.395Z,1.60
2024-03-05T14:13:46.567Z,1.20
2024-03-05T14:16:18.412Z,1.40
2024-03-05T14:18:45.195Z,1.40
2024-03-05T14:21:12.064Z,1.40
2024-03-05T14:23:40.281Z,1.10
2024-03-05T14:26:09.019Z,1.40
2024-03-05T14:28:35.856Z,1.10
2024-03-05T14:31:03.826Z,1.50
2024-03-05T14:33:30.663Z,1.10
2024-03-05T14:35:57.833Z,1.60
2024-03-05T14:38:25.331Z,1.20
2024-03-05T14:40:54.718Z,2.00
2024-03-05T14:43:25.103Z,1.50
2024-03-05T14:45:54.124Z,1.50
2024-03-05T14:48:20.930Z,1.70
2024-03-05T14:50:48.904Z,3.50
2024-03-05T14:53:15.762Z,1.90
2024-03-05T14:55:42.932Z,2.90
2024-03-05T14:58:09.761Z,2.40
2024-03-05T15:00:36.998Z,2.70
2024-03-05T15:03:03.866Z,2.20
2024-03-05T15:05:31.734Z,2.90
2024-03-05T15:07:58.559Z,2.50
2024-03-05T15:10:28.805Z,2.60
2024-03-05T15:12:55.778Z,1.30
2024-03-05T15:15:24.038Z,3.00
2024-03-05T15:17:51.177Z,2.60
2024-03-05T15:20:18.950Z,2.60
2024-03-05T15:22:50.762Z,1.60
2024-03-05T15:25:20.598Z,1.50
2024-03-05T15:27:52.877Z,2.00
2024-03-05T15:30:24.562Z,1.50
2024-03-05T15:32:51.531Z,1.40
2024-03-05T15:35:20.993Z,1.70
2024-03-05T15:37:49.078Z,1.50
2024-03-05T15:40:21.260Z,1.30
2024-03-05T15:42:57.959Z,1.30
2024-03-05T15:45:27.798Z,1.10
2024-03-05T15:47:54.770Z,1.60
2024-03-05T15:50:24.355Z,1.50
2024-03-05T15:52:54.622Z,1.70
2024-03-05T15:55:28.250Z,1.50
2024-03-05T15:58:03.417Z,1.30
2024-03-05T16:00:36.688Z,1.40
2024-03-05T16:03:06.819Z,1.80
2024-03-05T16:05:43.439Z,1.90
2024-03-05T16:10:49.341Z,2.00
2024-03-05T16:13:16.802Z,1.90
2024-03-05T16:15:46.264Z,1.90
2024-03-05T16:18:16.732Z,1.80
2024-03-05T16:20:43.896Z,1.80
2024-03-05T16:23:11.706Z,1.60
2024-03-05T16:25:39.955Z,3.20
2024-03-05T16:28:09.798Z,3.30
2024-03-05T16:30:37.812Z,3.40
2024-03-05T16:33:05.597Z,3.00
2024-03-05T16:35:35.648Z,2.20
2024-03-05T16:38:06.417Z,2.40
2024-03-05T16:40:37.780Z,2.20
2024-03-05T16:43:05.799Z,1.50
2024-03-05T16:45:32.879Z,2.50
2024-03-05T16:48:00.477Z,2.10
2024-03-05T16:50:29.931Z,2.20
2024-03-05T16:52:58.218Z,2.60
2024-03-05T16:55:29.435Z,2.10
2024-03-05T16:57:59.328Z,2.00
2024-03-05T17:00:31.239Z,2.00
2024-03-05T17:03:19.147Z,2.70
2024-03-05T17:05:51.383Z,2.70
2024-03-05T17:08:21.918Z,3.10
2024-03-05T17:10:51.318Z,3.20
2024-03-05T17:13:19.435Z,4.30
2024-03-05T17:15:53.854Z,4.10
2024-03-05T17:18:23.982Z,3.70
2024-03-05T17:20:51.486Z,4.40
2024-03-05T17:23:23.180Z,3.70
2024-03-05T17:25:52.081Z,3.90
2024-03-05T17:28:18.872Z,4.60
2024-03-05T17:30:46.553Z,3.50
2024-03-05T17:33:15.546Z,3.00
2024-03-05T17:35:43.153Z,3.20
2024-03-05T17:38:12.766Z,3.40
2024-03-05T17:40:39.455Z,2.60
2024-03-05T17:43:06.285Z,2.70
2024-03-05T17:45:33.448Z,2.40
2024-03-05T17:48:05.295Z,2.50
2024-03-05T17:50:32.487Z,2.50
2024-03-05T17:52:59.266Z,2.80
2024-03-05T17:55:26.119Z,3.40
2024-03-05T17:57:53.036Z,2.20
2024-03-05T18:00:27.157Z,5.60
2024-03-05T18:02:55.142Z,5.90
2024-03-05T18:05:28.272Z,4.10
2024-03-05T18:07:56.638Z,4.90
2024-03-05T18:10:25.139Z,6.60
2024-03-05T18:12:52.964Z,5.50
2024-03-05T18:15:21.258Z,6.50
2024-03-05T18:17:50.068Z,5.80
2024-03-05T18:20:18.669Z,6.30
2024-03-05T18:22:46.486Z,6.80
2024-03-05T18:25:20.893Z,6.40
2024-03-05T18:27:56.304Z,6.10
2024-03-05T18:30:28.692Z,6.20
2024-03-05T18:32:55.965Z,6.80
2024-03-05T18:35:25.062Z,6.30
2024-03-05T18:37:52.930Z,7.30
2024-03-05T18:40:21.749Z,6.50
2024-03-05T18:42:50.915Z,6.80
2024-03-05T18:45:19.292Z,6.40
2024-03-05T18:47:58.423Z,5.80
2024-03-05T18:50:30.331Z,7.00
2024-03-05T18:52:57.432Z,5.80
2024-03-05T18:55:29.178Z,6.50
2024-03-05T18:57:56.806Z,6.90
2024-03-05T19:00:23.867Z,7.10
2024-03-05T19:02:51.246Z,5.90
2024-03-05T19:05:19.212Z,8.50
2024-03-05T19:07:47.301Z,7.10
2024-03-05T19:10:16.510Z,6.40
2024-03-05T19:12:43.907Z,7.40
2024-03-05T19:15:13.351Z,5.50
2024-03-05T19:17:43.463Z,6.30
2024-03-05T19:20:13.762Z,6.10
2024-03-05T19:22:41.182Z,6.00
2024-03-05T19:25:11.160Z,7.10
2024-03-05T19:27:42.062Z,7.90
2024-03-05T19:30:16.462Z,6.40
2024-03-05T19:32:43.767Z,7.90
2024-03-05T19:35:14.359Z,7.60
2024-03-05T19:37:45.536Z,7.50
2024-03-05T19:40:16.239Z,5.70
2024-03-05T19:42:45.358Z,6.60
2024-03-05T19:45:12.558Z,9.00
2024-03-05T19:47:39.765Z,8.90
2024-03-05T19:50:07.206Z,6.50
2024-03-05T19:52:35.641Z,8.00
2024-03-05T19:55:02.868Z,6.30
2024-03-05T19:57:29.684Z,7.40
2024-03-05T19:59:59.670Z,5.80
2024-03-05T20:02:28.632Z,4.90
2024-03-05T20:04:55.971Z,5.50
2024-03-05T20:07:22.678Z,4.50
2024-03-05T20:09:49.571Z,4.40
2024-03-05T20:12:18.059Z,5.10
2024-03-05T20:14:44.905Z,6.70
2024-03-05T20:17:12.062Z,5.70
2024-03-05T20:19:39.990Z,6.50
2024-03-05T20:22:07.926Z,5.70
2024-03-05T20:24:35.423Z,5.90
2024-03-05T20:27:02.774Z,6.20
2024-03-05T20:29:30.462Z,5.80
2024-03-05T20:31:57.792Z,5.00
2024-03-05T20:34:26.098Z,5.10
2024-03-05T20:36:52.942Z,5.10
2024-03-05T20:39:19.666Z,5.30
2024-03-05T20:41:46.702Z,6.90
2024-03-05T20:44:17.322Z,7.90
2024-03-05T20:46:44.467Z,6.50
2024-03-05T20:49:11.381Z,6.80
2024-03-05T20:51:38.842Z,6.70
2024-03-05T20:54:05.602Z,7.40
2024-03-05T20:56:32.359Z,7.50
2024-03-05T20:58:59.246Z,8.20
2024-03-05T21:01:26.172Z,8.10
2024-03-05T21:03:53.488Z,7.30
2024-03-05T21:06:20.275Z,6.90
2024-03-05T21:08:48.080Z,6.60
2024-03-05T21:11:15.581Z,5.80
2024-03-05T21:13:42.801Z,5.90
2024-03-05T21:16:11.125Z,6.30
2024-03-05T21:18:38.242Z,5.80
2024-03-05T21:21:05.938Z,6.30
2024-03-05T21:23:34.240Z,6.70
2024-03-05T21:26:13.891Z,6.80
2024-03-05T21:28:51.662Z,6.30
2024-03-05T21:31:18.807Z,7.90
2024-03-05T21:33:45.771Z,6.50
2024-03-05T21:36:12.774Z,6.20
2024-03-05T21:38:39.567Z,6.40
2024-03-05T21:41:09.212Z,6.70
2024-03-05T21:43:35.983Z,6.70
2024-03-05T21:46:04.358Z,8.00
2024-03-05T21:48:31.174Z,8.30
2024-03-05T21:51:06.272Z,9.00
2024-03-05T21:53:36.941Z,8.50
2024-03-05T21:56:03.994Z,8.20
2024-03-05T21:58:30.859Z,9.10
2024-03-05T22:00:57.676Z,8.50
2024-03-05T22:03:24.516Z,7.10
2024-03-05T22:05:51.688Z,6.50
2024-03-05T22:08:18.740Z,7.10
2024-03-05T22:10:46.177Z,7.30
2024-03-05T22:13:13.260Z,6.60
2024-03-05T22:15:40.388Z,6.70
2024-03-05T22:18:14.322Z,7.60
2024-03-05T22:20:44.187Z,7.90
2024-03-05T22:23:24.340Z,7.40
2024-03-05T22:25:51.361Z,8.70
2024-03-05T22:28:27.754Z,7.10
2024-03-05T22:30:55.913Z,7.30
2024-03-05T22:33:28.968Z,6.70
2024-03-05T22:35:56.433Z,6.30
2024-03-05T22:38:33.081Z,8.00
2024-03-05T22:41:00.433Z,10.10
2024-03-05T22:43:27.788Z,9.30
2024-03-05T22:45:54.784Z,9.40
2024-03-05T22:48:31.674Z,9.80
2024-03-05T22:51:22.265Z,9.50
2024-03-05T22:54:01.598Z,9.10
2024-03-05T22:56:28.397Z,10.00
2024-03-05T22:58:55.342Z,8.30
2024-03-05T23:01:22.135Z,8.60
2024-03-05T23:03:49.289Z,8.50
2024-03-05T23:06:21.083Z,8.70
2024-03-05T23:08:51.867Z,8.80
2024-03-05T23:11:18.989Z,8.20
2024-03-05T23:13:45.961Z,9.40
2024-03-05T23:16:13.903Z,8.90
2024-03-05T23:18:41.429Z,6.80
2024-03-05T23:21:10.171Z,6.30
2024-03-05T23:23:38.604Z,8.00
2024-03-05T23:26:06.911Z,9.90
2024-03-05T23:28:33.753Z,7.70
2024-03-05T23:31:00.553Z,9.10
2024-03-05T23:33:27.298Z,8.20
2024-03-05T23:35:53.967Z,7.70
2024-03-05T23:38:21.411Z,8.90
2024-03-05T23:40:48.264Z,7.80
2024-03-05T23:43:15.113Z,5.60
2024-03-05T23:45:41.942Z,6.10
2024-03-05T23:48:09.793Z,6.30
2024-03-05T23:50:36.679Z,5.50
2024-03-05T23:53:03.722Z,4.60
2024-03-05T23:55:30.925Z,6.10
2024-03-05T23:57:57.690Z,4.30
